Time;durP1;ratioP1;P1;durP2;ratioP2;P2;SDS_P1;SDS_P2;PMS_P1;PMS_P2;Temp;Humidity;BMP_temperature;BMP_pressure;BME280_temperature;BME280_humidity;BME280_pressure;Samples;Min_cycle;Max_cycle;Signal;HPM_P1;HPM_P2
2021/01/02 00:02:25;;;;;;;2.92;2.65;;;14.90;58.80;;;;;;5033718;28;20108;-55
2021/01/02 00:04:51;;;;;;;4.13;2.80;;;14.90;58.90;;;;;;5015658;28;20029;-56
2021/01/02 00:07:41;;;;;;;3.70;2.78;;;14.90;58.90;;;;;;5015523;28;20476;-55
2021/01/02 00:10:11;;;;;;;4.47;2.53;;;14.90;59.00;;;;;;5033544;28;20029;-56
2021/01/02 00:12:57;;;;;;;3.03;2.30;;;14.80;58.90;;;;;;5033693;28;20026;-55
2021/01/02 00:16:00;;;;;;;4.38;2.70;;;14.80;59.00;;;;;;5033633;28;20029;-56
2021/01/02 00:18:37;;;;;;;2.83;2.30;;;14.80;59.00;;;;;;5017190;28;20052;-55
2021/01/02 00:21:08;;;;;;;3.47;2.40;;;14.80;59.10;;;;;;5015753;28;20025;-54
2021/01/02 00:23:56;;;;;;;2.40;2.20;;;14.80;59.10;;;;;;5015058;28;20033;-52
2021/01/02 00:26:24;;;;;;;3.92;2.55;;;14.80;59.10;;;;;;5033092;28;20025;-56
2021/01/02 00:28:51;;;;;;;3.13;2.58;;;14.80;59.20;;;;;;5033186;28;20232;-56
2021/01/02 00:31:53;;;;;;;3.00;2.20;;;14.80;59.20;;;;;;5031995;28;20021;-56
2021/01/02 00:34:40;;;;;;;2.75;2.45;;;14.80;59.20;;;;;;5015252;28;20030;-56
2021/01/02 00:37:12;;;;;;;2.58;2.38;;;14.70;59.20;;;;;;5014981;28;20099;-56
2021/01/02 00:40:00;;;;;;;3.22;2.35;;;14.70;59.30;;;;;;5032592;28;20057;-56
2021/01/02 00:42:26;;;;;;;3.17;2.35;;;14.70;59.30;;;;;;5014815;28;20036;-56
2021/01/02 00:44:56;;;;;;;4.07;2.58;;;14.70;59.30;;;;;;5014732;28;20030;-56
2021/01/02 00:47:26;;;;;;;3.80;2.58;;;14.70;59.40;;;;;;5014949;28;20037;-56
2021/01/02 00:49:54;;;;;;;3.15;2.45;;;14.70;59.40;;;;;;5015026;28;20029;-56
2021/01/02 00:52:38;;;;;;;2.88;2.30;;;14.70;59.40;;;;;;5014861;28;20125;-56
2021/01/02 00:55:13;;;;;;;2.95;2.65;;;14.60;59.40;;;;;;5032384;28;20045;-57
2021/01/02 00:58:01;;;;;;;2.97;2.55;;;14.60;59.40;;;;;;5014568;28;20144;-55
2021/01/02 01:00:37;;;;;;;2.55;2.35;;;14.60;59.50;;;;;;5014842;28;20083;-56
2021/01/02 01:03:35;;;;;;;2.97;2.45;;;14.60;59.50;;;;;;5014700;28;20049;-56
2021/01/02 01:06:04;;;;;;;3.35;2.90;;;14.60;59.50;;;;;;5014664;28;20034;-56
2021/01/02 01:08:32;;;;;;;2.53;2.33;;;14.60;59.60;;;;;;5032273;28;20112;-56
2021/01/02 01:11:02;;;;;;;3.22;2.42;;;14.60;59.60;;;;;;5032180;28;20100;-55
2021/01/02 01:13:27;;;;;;;3.38;2.50;;;14.60;59.60;;;;;;5032174;28;20471;-56
2021/01/02 01:15:53;;;;;;;3.22;2.65;;;14.60;59.70;;;;;;5014630;28;20032;-56
2021/01/02 01:18:57;;;;;;;3.28;2.55;;;14.60;59.70;;;;;;5018232;28;20110;-56
2021/01/02 01:21:27;;;;;;;2.83;2.58;;;14.50;59.70;;;;;;5014316;28;20022;-56
2021/01/02 01:24:12;;;;;;;3.67;2.70;;;14.50;59.70;;;;;;5014420;28;20032;-56
2021/01/02 01:27:03;;;;;;;2.42;2.03;;;14.50;59.70;;;;;;5014395;28;20148;-56
2021/01/02 01:29:41;;;;;;;3.38;2.47;;;14.50;59.80;;;;;;5014365;28;20025;-56
2021/01/02 01:32:08;;;;;;;2.45;2.25;;;14.40;59.80;;;;;;5032107;28;20041;-54
2021/01/02 01:34:36;;;;;;;2.60;2.40;;;14.50;59.80;;;;;;5031991;28;20025;-56
2021/01/02 01:37:05;;;;;;;5.50;3.47;;;14.50;59.90;;;;;;5014250;28;20018;-55
2021/01/02 01:39:32;;;;;;;3.13;2.78;;;14.50;59.90;;;;;;5014145;28;20392;-56
2021/01/02 01:42:00;;;;;;;3.22;2.63;;;14.50;59.90;;;;;;5013853;28;20431;-56
2021/01/02 01:45:16;;;;;;;3.15;2.60;;;14.50;60.00;;;;;;5031829;28;20033;-55
2021/01/02 01:47:42;;;;;;;4.25;2.90;;;14.40;59.90;;;;;;4977464;28;20042;-56
2021/01/02 01:50:34;;;;;;;2.88;2.45;;;14.50;60.00;;;;;;5031930;28;20026;-55
2021/01/02 01:53:39;;;;;;;3.67;2.88;;;14.40;59.90;;;;;;5013960;28;20026;-55
2021/01/02 01:56:13;;;;;;;2.78;2.20;;;14.40;59.90;;;;;;5031881;28;20036;-56
2021/01/02 01:58:53;;;;;;;2.78;2.28;;;14.40;59.90;;;;;;5031666;28;20040;-55
2021/01/02 02:01:25;;;;;;;4.55;2.95;;;14.40;60.00;;;;;;5031660;28;20030;-56
2021/01/02 02:04:10;;;;;;;2.83;2.55;;;14.40;60.00;;;;;;5031646;28;20068;-56
2021/01/02 02:06:51;;;;;;;2.58;2.35;;;14.40;60.00;;;;;;5031698;28;20032;-56
2021/01/02 02:09:21;;;;;;;3.30;2.42;;;14.40;60.00;;;;;;5031565;28;20033;-56
2021/01/02 02:12:22;;;;;;;2.50;2.30;;;14.30;60.00;;;;;;5031627;28;20022;-56
2021/01/02 02:14:57;;;;;;;3.70;2.55;;;14.30;60.00;;;;;;5031591;28;20029;-55
2021/01/02 02:17:25;;;;;;;3.00;2.63;;;14.30;60.00;;;;;;5031465;28;20484;-54
2021/01/02 02:20:10;;;;;;;3.03;2.35;;;14.30;60.10;;;;;;5031562;28;20057;-55
2021/01/02 02:22:38;;;;;;;3.63;2.50;;;14.30;60.10;;;;;;5031350;28;20475;-55
2021/01/02 02:25:08;;;;;;;3.00;2.35;;;14.30;60.10;;;;;;5031388;28;20045;-55
2021/01/02 02:27:39;;;;;;;2.90;2.30;;;14.30;60.10;;;;;;5031378;28;20048;-56
2021/01/02 02:30:09;;;;;;;3.35;2.70;;;14.30;60.20;;;;;;5031687;28;20121;-56
2021/01/02 02:32:49;;;;;;;4.50;2.90;;;14.20;60.10;;;;;;5031259;28;20112;-55
2021/01/02 02:35:17;;;;;;;2.88;2.28;;;14.30;60.20;;;;;;5031743;28;20026;-55
2021/01/02 02:37:48;;;;;;;4.13;2.58;;;14.30;60.20;;;;;;5031307;28;20463;-56
2021/01/02 02:40:17;;;;;;;2.95;2.33;;;14.30;60.20;;;;;;5031357;28;20443;-56
2021/01/02 02:43:06;;;;;;;2.85;2.53;;;14.30;60.30;;;;;;5031277;28;20026;-56
2021/01/02 02:45:33;;;;;;;2.97;2.67;;;14.30;60.30;;;;;;5030396;28;20077;-56
2021/01/02 02:48:04;;;;;;;3.10;2.60;;;14.20;60.30;;;;;;5013706;28;20030;-56
2021/01/02 02:50:31;;;;;;;2.85;2.50;;;14.20;60.30;;;;;;5031355;28;20033;-55
2021/01/02 02:53:05;;;;;;;2.45;2.25;;;14.20;60.30;;;;;;5031325;28;20028;-56
2021/01/02 02:55:34;;;;;;;3.97;2.58;;;14.20;60.30;;;;;;5034768;28;20025;-56
2021/01/02 02:58:02;;;;;;;3.45;2.63;;;14.20;60.40;;;;;;5034702;28;20033;-56
2021/01/02 03:00:28;;;;;;;3.13;2.50;;;14.20;60.30;;;;;;5016848;28;20112;-56
2021/01/02 03:02:53;;;;;;;2.92;2.60;;;14.20;60.40;;;;;;5034625;28;20108;-56
2021/01/02 03:05:19;;;;;;;3.10;2.60;;;14.20;60.40;;;;;;5034410;28;20037;-56
2021/01/02 03:07:47;;;;;;;2.58;2.28;;;14.20;60.50;;;;;;5034941;28;20033;-56
2021/01/02 03:10:15;;;;;;;3.15;2.60;;;14.10;60.40;;;;;;5016648;28;20034;-55
2021/01/02 03:12:42;;;;;;;2.75;2.50;;;14.10;60.40;;;;;;5017025;28;20033;-55
2021/01/02 03:15:10;;;;;;;3.45;2.58;;;14.10;60.40;;;;;;5034355;28;20064;-55
2021/01/02 03:17:35;;;;;;;3.00;2.63;;;14.10;60.40;;;;;;5036245;28;20025;-56
2021/01/02 03:20:02;;;;;;;4.15;2.75;;;14.10;60.40;;;;;;5034247;28;20057;-55
2021/01/02 03:22:28;;;;;;;3.97;3.20;;;14.10;60.40;;;;;;5034391;28;20272;-56
2021/01/02 03:24:53;;;;;;;3.15;2.85;;;14.10;60.50;;;;;;5034323;28;20296;-55
2021/01/02 03:27:19;;;;;;;3.58;2.92;;;14.10;60.50;;;;;;5034588;28;20021;-56
2021/01/02 03:29:44;;;;;;;3.15;2.50;;;14.10;60.50;;;;;;5034360;28;20029;-56
2021/01/02 03:32:10;;;;;;;3.65;2.60;;;14.10;60.50;;;;;;5016090;28;20028;-56
2021/01/02 03:34:38;;;;;;;3.10;2.67;;;14.10;60.50;;;;;;5016373;28;20116;-56
2021/01/02 03:37:04;;;;;;;4.50;2.97;;;14.00;60.40;;;;;;5016007;28;20472;-53
2021/01/02 03:39:30;;;;;;;3.78;2.70;;;14.00;60.60;;;;;;5034041;28;20036;-56
2021/01/02 03:41:55;;;;;;;2.63;2.42;;;14.00;61.20;;;;;;5033942;28;20526;-55
2021/01/02 03:44:21;;;;;;;3.47;2.70;;;14.00;60.60;;;;;;5016102;28;20061;-54
2021/01/02 03:46:47;;;;;;;2.95;2.65;;;14.00;60.60;;;;;;5016049;28;20045;-54
2021/01/02 03:49:13;;;;;;;3.35;2.90;;;14.00;60.60;;;;;;5015983;28;20112;-55
2021/01/02 03:51:38;;;;;;;4.60;2.72;;;14.00;60.60;;;;;;5033852;28;20025;-56
2021/01/02 03:54:04;;;;;;;3.42;2.83;;;14.00;60.60;;;;;;5015883;28;20365;-56
2021/01/02 03:56:29;;;;;;;3.75;2.58;;;14.00;60.60;;;;;;5015823;28;20056;-56
2021/01/02 03:58:55;;;;;;;3.67;2.70;;;14.00;60.60;;;;;;5015827;28;20029;-54
2021/01/02 04:01:21;;;;;;;3.50;2.80;;;14.00;60.70;;;;;;5015726;28;20108;-57
2021/01/02 04:03:46;;;;;;;3.00;2.65;;;14.00;60.70;;;;;;5033369;28;20025;-56
2021/01/02 04:06:12;;;;;;;3.63;2.80;;;14.00;60.70;;;;;;5015527;28;20033;-56
2021/01/02 04:08:37;;;;;;;3.88;2.88;;;14.00;60.70;;;;;;5033495;28;20028;-55
2021/01/02 04:11:03;;;;;;;2.83;2.28;;;14.00;60.70;;;;;;5015628;28;20029;-54
2021/01/02 04:13:29;;;;;;;3.47;2.72;;;13.90;60.70;;;;;;5015409;28;20033;-55
2021/01/02 04:15:54;;;;;;;3.28;2.80;;;13.90;60.70;;;;;;5033350;28;20467;-55
2021/01/02 04:18:20;;;;;;;2.90;2.40;;;13.90;60.70;;;;;;5017264;28;20571;-56
2021/01/02 04:20:49;;;;;;;3.13;2.55;;;13.90;60.70;;;;;;5033260;28;20476;-55
2021/01/02 04:23:15;;;;;;;3.35;2.75;;;13.90;60.70;;;;;;5033090;28;20031;-53
2021/01/02 04:25:41;;;;;;;3.28;2.65;;;13.90;60.80;;;;;;5015183;28;20041;-55
2021/01/02 04:28:11;;;;;;;3.33;2.88;;;13.90;60.70;;;;;;5015332;28;20026;-56
2021/01/02 04:30:36;;;;;;;3.05;2.72;;;13.90;60.80;;;;;;5014979;28;20029;-56
2021/01/02 04:33:03;;;;;;;2.85;2.50;;;13.90;60.80;;;;;;5032770;28;20035;-56
2021/01/02 04:35:28;;;;;;;2.72;2.40;;;13.90;60.80;;;;;;5032893;28;20507;-55
2021/01/02 04:37:54;;;;;;;2.75;2.50;;;13.90;60.80;;;;;;5015116;28;20030;-56
2021/01/02 04:40:20;;;;;;;2.90;2.38;;;13.90;60.80;;;;;;5015132;28;20515;-56
2021/01/02 04:42:48;;;;;;;2.70;2.50;;;13.90;60.80;;;;;;5014836;28;20025;-53
2021/01/02 04:45:13;;;;;;;3.28;2.97;;;13.80;60.80;;;;;;5032721;28;20037;-55
2021/01/02 04:47:43;;;;;;;2.95;2.67;;;13.80;60.90;;;;;;5032492;28;20037;-56
2021/01/02 04:50:09;;;;;;;4.50;3.13;;;13.80;60.80;;;;;;5032817;28;20033;-55
2021/01/02 04:52:35;;;;;;;2.40;2.20;;;13.80;61.60;;;;;;5014825;28;20018;-55
2021/01/02 04:55:04;;;;;;;3.33;2.80;;;13.80;60.90;;;;;;5014951;28;20029;-55
2021/01/02 04:57:40;;;;;;;3.20;2.70;;;13.80;60.90;;;;;;5014639;28;20049;-55
2021/01/02 05:00:09;;;;;;;3.05;2.50;;;13.80;60.90;;;;;;5014876;28;20117;-54
2021/01/02 05:02:38;;;;;;;3.28;2.63;;;13.80;60.90;;;;;;5014754;28;20061;-56
2021/01/02 05:05:06;;;;;;;3.70;3.05;;;13.80;60.90;;;;;;5014503;28;20048;-54
2021/01/02 05:07:32;;;;;;;3.47;2.80;;;13.80;61.00;;;;;;5014461;28;20028;-56
2021/01/02 05:09:58;;;;;;;3.15;2.58;;;13.80;61.00;;;;;;5014608;28;20025;-52
2021/01/02 05:12:28;;;;;;;3.67;2.67;;;13.80;61.00;;;;;;5014274;28;20361;-55
2021/01/02 05:15:08;;;;;;;2.65;2.45;;;13.80;61.00;;;;;;5032255;28;20037;-55
2021/01/02 05:17:34;;;;;;;;;;;13.80;61.00;;;;;;5032208;28;20080;-55
2021/01/02 05:20:07;;;;;;;3.75;2.65;;;13.70;60.90;;;;;;5016173;28;20407;-55
2021/01/02 05:22:34;;;;;;;4.20;2.80;;;13.80;61.00;;;;;;5014570;28;20048;-55
2021/01/02 05:25:09;;;;;;;3.72;2.92;;;13.70;61.00;;;;;;5014246;28;20030;-55
2021/01/02 05:27:36;;;;;;;3.28;2.97;;;13.70;61.00;;;;;;5014221;28;20025;-55
2021/01/02 05:30:37;;;;;;;2.95;2.50;;;13.70;61.00;;;;;;5014295;28;20021;-55
2021/01/02 05:33:13;;;;;;;2.97;2.67;;;13.70;61.00;;;;;;5013462;28;20049;-55
2021/01/02 05:35:44;;;;;;;3.20;2.90;;;13.70;61.00;;;;;;5014239;28;20036;-53
2021/01/02 05:38:17;;;;;;;2.80;2.50;;;13.70;61.00;;;;;;5031901;28;20040;-55
2021/01/02 05:40:47;;;;;;;3.17;2.88;;;13.70;61.00;;;;;;5013925;28;20061;-55
2021/01/02 05:43:14;;;;;;;3.35;2.67;;;13.70;61.10;;;;;;5031931;28;20451;-54
2021/01/02 05:45:40;;;;;;;3.38;2.92;;;13.70;61.10;;;;;;5031649;28;20662;-57
2021/01/02 05:48:13;;;;;;;4.43;3.20;;;13.70;61.10;;;;;;5014016;28;20113;-55
2021/01/02 05:50:44;;;;;;;3.78;3.13;;;13.70;61.20;;;;;;5013930;28;20059;-55
2021/01/02 05:53:27;;;;;;;3.90;3.22;;;13.70;61.20;;;;;;5013918;28;20030;-54
2021/01/02 05:56:19;;;;;;;3.50;2.83;;;13.70;61.20;;;;;;5013780;28;20083;-55
2021/01/02 05:58:45;;;;;;;4.07;3.13;;;13.70;61.20;;;;;;5010242;28;20069;-55
2021/01/02 06:01:19;;;;;;;3.53;2.80;;;13.70;61.30;;;;;;5031548;28;20383;-56
2021/01/02 06:03:47;;;;;;;2.90;2.30;;;13.70;61.30;;;;;;5031557;28;20021;-56
2021/01/02 06:06:15;;;;;;;4.05;2.72;;;13.70;61.40;;;;;;5031897;28;20029;-57
2021/01/02 06:08:51;;;;;;;2.67;2.45;;;13.70;61.60;;;;;;5031582;28;20068;-55
2021/01/02 06:11:22;;;;;;;2.85;2.22;;;13.80;61.70;;;;;;5014163;28;20172;-54
2021/01/02 06:13:50;;;;;;;3.13;2.83;;;13.80;61.40;;;;;;5013874;28;20078;-55
2021/01/02 06:16:15;;;;;;;3.05;2.50;;;13.90;61.60;;;;;;5013789;28;20533;-55
2021/01/02 06:18:43;;;;;;;4.35;2.92;;;13.90;61.30;;;;;;5015511;28;20042;-55
2021/01/02 06:21:14;;;;;;;2.83;2.50;;;14.00;61.30;;;;;;5013693;28;20025;-53
2021/01/02 06:23:41;;;;;;;2.40;2.20;;;14.10;61.40;;;;;;5013562;28;20026;-55
2021/01/02 06:26:09;;;;;;;2.97;2.47;;;14.10;61.20;;;;;;5013720;28;20025;-53
2021/01/02 06:28:43;;;;;;;2.03;1.83;;;14.20;61.20;;;;;;5014773;28;20083;-55
2021/01/02 06:31:14;;;;;;;3.38;2.63;;;14.30;61.30;;;;;;5035201;28;20017;-55
2021/01/02 06:33:48;;;;;;;2.65;2.20;;;14.40;61.20;;;;;;5035146;28;20495;-53
2021/01/02 06:36:35;;;;;;;2.58;2.33;;;14.40;61.10;;;;;;5035323;28;20376;-55
2021/01/02 06:39:28;;;;;;;2.50;2.30;;;14.50;61.00;;;;;;5035254;28;20036;-56
2021/01/02 06:41:56;;;;;;;2.20;1.92;;;14.50;61.00;;;;;;5035018;28;20400;-56
2021/01/02 06:44:40;;;;;;;3.08;2.25;;;14.60;60.90;;;;;;5017233;28;20044;-55
2021/01/02 06:47:16;;;;;;;3.35;2.42;;;14.70;60.80;;;;;;5016865;28;20029;-56
2021/01/02 06:49:41;;;;;;;2.65;2.20;;;14.80;60.70;;;;;;5016914;28;20063;-56
2021/01/02 06:52:07;;;;;;;2.22;2.00;;;14.80;60.70;;;;;;5017200;28;20108;-56
2021/01/02 06:54:33;;;;;;;2.60;2.30;;;14.80;60.60;;;;;;5034954;28;20083;-56
2021/01/02 06:57:03;;;;;;;3.22;2.45;;;14.80;60.60;;;;;;5034864;28;20476;-55
2021/01/02 06:59:30;;;;;;;3.70;2.70;;;14.90;60.70;;;;;;5034677;28;20071;-56
2021/01/02 07:01:55;;;;;;;2.60;2.20;;;14.80;60.60;;;;;;5034804;28;20111;-57
2021/01/02 07:04:38;;;;;;;2.65;2.42;;;14.80;60.60;;;;;;5034515;28;20061;-57
2021/01/02 07:07:05;;;;;;;2.58;2.28;;;14.80;60.60;;;;;;5034758;28;20034;-55
2021/01/02 07:09:32;;;;;;;2.83;2.47;;;14.80;60.60;;;;;;5034454;28;20036;-56
2021/01/02 07:12:09;;;;;;;2.58;2.13;;;14.80;60.60;;;;;;5034777;28;20071;-56
2021/01/02 07:14:35;;;;;;;2.80;2.60;;;14.80;60.60;;;;;;5034277;28;20163;-56
2021/01/02 07:17:04;;;;;;;3.03;2.42;;;14.80;60.60;;;;;;5034384;28;20052;-56
2021/01/02 07:19:38;;;;;;;4.80;2.78;;;14.80;60.70;;;;;;5036083;28;20398;-53
2021/01/02 07:22:12;;;;;;;2.22;2.03;;;14.90;60.70;;;;;;5034144;28;20521;-56
2021/01/02 07:24:49;;;;;;;3.67;2.85;;;14.90;60.60;;;;;;5016354;28;20494;-55
2021/01/02 07:27:20;;;;;;;3.10;2.47;;;14.90;60.50;;;;;;5034185;28;20021;-56
2021/01/02 07:29:51;;;;;;;3.30;2.42;;;14.90;61.20;;;;;;5033679;28;20384;-55
2021/01/02 07:32:21;;;;;;;3.28;2.20;;;14.90;60.70;;;;;;5016186;28;20104;-56
2021/01/02 07:34:55;;;;;;;2.72;2.50;;;14.90;60.60;;;;;;5034134;28;20422;-56
2021/01/02 07:37:26;;;;;;;2.75;2.53;;;14.90;60.70;;;;;;4999826;28;20609;-56
2021/01/02 07:40:08;;;;;;;2.85;2.30;;;14.90;60.80;;;;;;5033405;28;20033;-57
2021/01/02 07:42:35;;;;;;;3.75;2.40;;;14.90;60.70;;;;;;5016265;28;20017;-54
2021/01/02 07:45:03;;;;;;;2.70;2.45;;;14.90;60.80;;;;;;5016066;28;20049;-56
2021/01/02 07:47:29;;;;;;;2.60;2.40;;;14.80;60.90;;;;;;5016107;28;20026;-56
2021/01/02 07:50:12;;;;;;;2.60;2.20;;;14.80;60.90;;;;;;5016030;28;20032;-56
2021/01/02 07:52:55;;;;;;;2.17;1.90;;;14.80;61.00;;;;;;5015933;28;20547;-56
2021/01/02 07:55:22;;;;;;;2.28;2.00;;;14.80;61.10;;;;;;5015880;28;20022;-56
2021/01/02 07:57:48;;;;;;;4.05;2.90;;;14.70;60.90;;;;;;5015798;28;20024;-55
2021/01/02 08:00:14;;;;;;;3.55;2.85;;;14.70;60.80;;;;;;5015943;28;20034;-50
2021/01/02 08:02:40;;;;;;;4.32;2.83;;;14.70;60.90;;;;;;5015884;28;20029;-55
2021/01/02 08:05:09;;;;;;;4.35;3.20;;;14.70;61.30;;;;;;5015829;28;20167;-55
2021/01/02 08:07:35;;;;;;;7.07;3.58;;;14.70;61.00;;;;;;5033794;28;20380;-54
2021/01/02 08:10:01;;;;;;;4.93;3.53;;;14.60;60.90;;;;;;5033465;28;20025;-55
2021/01/02 08:12:26;;;;;;;5.10;3.35;;;14.60;61.00;;;;;;5033459;28;20021;-51
2021/01/02 08:14:52;;;;;;;7.13;3.65;;;14.60;61.10;;;;;;5015639;28;20025;-53
2021/01/02 08:17:19;;;;;;;6.32;4.40;;;14.60;60.90;;;;;;5015844;28;20024;-54
2021/01/02 08:19:47;;;;;;;7.72;4.88;;;14.50;60.50;;;;;;5017098;28;20111;-54
2021/01/02 08:22:37;;;;;;;6.80;5.25;;;14.50;60.30;;;;;;5015608;28;20025;-54
2021/01/02 08:25:17;;;;;;;9.95;4.88;;;14.50;60.40;;;;;;5015486;28;20033;-54
2021/01/02 08:27:44;;;;;;;8.15;4.32;;;14.50;60.50;;;;;;5015262;28;20147;-55
2021/01/02 08:30:12;;;;;;;5.40;3.60;;;14.40;60.90;;;;;;5015341;28;20060;-55
2021/01/02 08:32:59;;;;;;;5.45;4.20;;;14.40;60.90;;;;;;5033053;28;20034;-54
2021/01/02 08:35:34;;;;;;;6.95;4.40;;;14.40;60.90;;;;;;5033029;28;20026;-56
2021/01/02 08:38:17;;;;;;;8.68;4.57;;;14.50;61.00;;;;;;5033024;28;20040;-56
2021/01/02 08:40:48;;;;;;;6.80;4.50;;;14.50;61.20;;;;;;5015159;28;20025;-57
2021/01/02 08:43:24;;;;;;;;;;;14.60;60.90;;;;;;5033251;28;20023;-55
2021/01/02 08:45:51;;;;;;;7.85;4.57;;;14.60;60.80;;;;;;5032638;28;19940;-53
2021/01/02 08:48:25;;;;;;;11.05;4.28;;;14.60;61.00;;;;;;5016363;28;20136;-50
2021/01/02 08:50:51;;;;;;;8.57;4.65;;;14.70;61.20;;;;;;4997939;28;20026;-50
2021/01/02 08:53:42;;;;;;;7.85;5.15;;;14.70;61.50;;;;;;5014848;28;20435;-51
2021/01/02 08:56:22;;;;;;;6.50;5.00;;;14.90;61.90;;;;;;5029046;28;20065;-51
2021/01/02 08:58:47;;;;;;;13.77;5.60;;;14.90;61.70;;;;;;5032527;28;20025;-54
2021/01/02 09:01:13;;;;;;;10.13;5.60;;;15.00;61.50;;;;;;5032400;28;20096;-54
2021/01/02 09:03:38;;;;;;;11.45;5.65;;;15.10;61.20;;;;;;5032353;28;20033;-52
2021/01/02 09:06:21;;;;;;;13.63;5.30;;;15.10;61.00;;;;;;5032454;28;20036;-55
2021/01/02 09:09:07;;;;;;;7.88;5.03;;;15.30;60.70;;;;;;5032194;28;20018;-52
2021/01/02 09:11:48;;;;;;;7.38;5.03;;;15.40;60.20;;;;;;5032112;28;20051;-53
2021/01/02 09:14:13;;;;;;;;;;;15.50;59.80;;;;;;5032707;28;20025;-55
2021/01/02 09:16:39;;;;;;;7.95;4.88;;;15.60;59.50;;;;;;5032627;28;20004;-55
2021/01/02 09:19:11;;;;;;;7.03;4.75;;;15.70;59.10;;;;;;5033979;28;20510;-55
2021/01/02 09:21:38;;;;;;;7.60;4.80;;;15.90;58.90;;;;;;5032056;28;20025;-54
2021/01/02 09:24:21;;;;;;;7.18;4.80;;;15.90;58.80;;;;;;5014420;28;20391;-50
2021/01/02 09:26:47;;;;;;;9.07;5.30;;;16.00;58.70;;;;;;5014402;28;20064;-52
2021/01/02 09:29:15;;;;;;;8.30;4.60;;;16.10;58.60;;;;;;5031960;28;20032;-54
2021/01/02 09:31:42;;;;;;;6.80;4.93;;;16.20;58.40;;;;;;5032205;28;20030;-54
2021/01/02 09:34:08;;;;;;;9.00;4.80;;;16.20;58.30;;;;;;5031932;28;20476;-55
2021/01/02 09:36:34;;;;;;;11.07;4.50;;;16.20;58.10;;;;;;5030674;28;20021;-55
2021/01/02 09:39:00;;;;;;;8.50;4.80;;;16.30;57.90;;;;;;5030650;28;20033;-52
2021/01/02 09:41:27;;;;;;;8.40;4.78;;;16.40;57.80;;;;;;5031912;28;20097;-53
2021/01/02 09:43:55;;;;;;;9.35;4.88;;;16.40;57.70;;;;;;5014293;28;20025;-54
2021/01/02 09:46:22;;;;;;;6.80;4.60;;;16.40;57.70;;;;;;5030526;28;20120;-54
2021/01/02 09:48:51;;;;;;;9.63;5.57;;;16.40;57.50;;;;;;5031775;28;20033;-54
2021/01/02 09:51:18;;;;;;;8.35;4.50;;;16.50;57.40;;;;;;5031766;28;20028;-52
2021/01/02 09:53:43;;;;;;;8.98;4.72;;;16.50;57.20;;;;;;5031711;28;20104;-54
2021/01/02 09:56:09;;;;;;;7.43;4.28;;;16.50;57.20;;;;;;5031586;28;20068;-54
2021/01/02 09:58:35;;;;;;;8.50;4.90;;;16.70;57.20;;;;;;5031765;28;20456;-53
2021/01/02 10:01:00;;;;;;;7.40;4.35;;;16.60;56.90;;;;;;5031894;28;20388;-53
2021/01/02 10:03:26;;;;;;;8.50;4.90;;;16.60;56.80;;;;;;5033187;28;20120;-53
2021/01/02 10:05:52;;;;;;;9.05;5.43;;;16.60;56.90;;;;;;5035722;28;20044;-53
2021/01/02 10:08:17;;;;;;;8.00;4.70;;;16.60;56.70;;;;;;5035937;28;20100;-54
2021/01/02 10:10:43;;;;;;;9.60;5.13;;;16.70;56.70;;;;;;5035726;28;20022;-55
2021/01/02 10:13:09;;;;;;;7.55;5.18;;;16.70;56.60;;;;;;5035824;28;20018;-55
2021/01/02 10:15:35;;;;;;;9.63;5.22;;;16.70;56.50;;;;;;5034412;28;20021;-54
2021/01/02 10:18:01;;;;;;;6.15;5.15;;;16.80;56.50;;;;;;5034132;28;20379;-53
2021/01/02 10:20:27;;;;;;;9.23;5.40;;;16.80;56.40;;;;;;5035186;28;20045;-49
2021/01/02 10:22:52;;;;;;;9.90;5.75;;;16.80;56.60;;;;;;5035623;28;20487;-53
2021/01/02 10:25:18;;;;;;;11.05;5.97;;;16.80;56.40;;;;;;5035474;28;20072;-51
2021/01/02 10:27:44;;;;;;;9.93;5.50;;;16.80;56.50;;;;;;5034460;28;20159;-53
2021/01/02 10:30:12;;;;;;;11.25;6.15;;;16.80;56.70;;;;;;5034072;28;20033;-51
2021/01/02 10:32:38;;;;;;;11.60;6.35;;;16.80;56.40;;;;;;5035442;28;20025;-50
2021/01/02 10:35:06;;;;;;;6.70;5.30;;;16.80;56.60;;;;;;5034048;28;20030;-51
2021/01/02 10:37:32;;;;;;;13.32;6.07;;;16.80;56.50;;;;;;5033764;28;20028;-50
2021/01/02 10:39:57;;;;;;;10.75;6.10;;;16.80;56.40;;;;;;5035350;28;20108;-53
2021/01/02 10:42:27;;;;;;;15.63;5.93;;;16.80;56.40;;;;;;5035076;28;20025;-50
2021/01/02 10:45:00;;;;;;;8.30;5.25;;;16.70;56.70;;;;;;5035147;28;20040;-53
2021/01/02 10:47:28;;;;;;;9.38;6.15;;;16.70;56.60;;;;;;5035154;28;20075;-53
2021/01/02 10:50:01;;;;;;;8.52;5.60;;;16.70;56.70;;;;;;5035098;28;20034;-51
2021/01/02 10:52:28;;;;;;;8.07;5.72;;;16.70;56.60;;;;;;5035152;28;20035;-53
2021/01/02 10:54:55;;;;;;;8.70;6.43;;;16.60;57.10;;;;;;5033515;28;20042;-52
2021/01/02 10:57:24;;;;;;;7.68;5.75;;;16.60;58.70;;;;;;5035069;28;20023;-52
2021/01/02 10:59:51;;;;;;;10.90;6.30;;;16.60;58.00;;;;;;5033532;28;20036;-50
2021/01/02 11:02:16;;;;;;;11.02;6.40;;;16.60;58.70;;;;;;5034845;28;20075;-55
2021/01/02 11:04:42;;;;;;;9.90;6.20;;;16.50;59.30;;;;;;5034856;28;20022;-53
2021/01/02 11:07:09;;;;;;;14.95;7.75;;;16.60;60.40;;;;;;5034486;28;20021;-53
2021/01/02 11:09:35;;;;;;;11.55;6.82;;;16.60;62.90;;;;;;5034644;28;20036;-54
2021/01/02 11:12:00;;;;;;;13.82;6.95;;;16.60;62.60;;;;;;5034618;28;20025;-52
2021/01/02 11:14:26;;;;;;;12.13;7.35;;;16.50;62.90;;;;;;5033826;28;20017;-55
2021/01/02 11:16:52;;;;;;;13.63;7.32;;;16.60;63.50;;;;;;5034556;28;20021;-53
2021/01/02 11:19:27;;;;;;;14.77;7.15;;;16.60;64.00;;;;;;5036205;28;20381;-54
2021/01/02 11:21:56;;;;;;;12.18;6.72;;;16.60;63.70;;;;;;5034006;28;20030;-53
2021/01/02 11:24:24;;;;;;;8.48;6.05;;;16.60;63.70;;;;;;5016438;28;20056;-52
2021/01/02 11:26:52;;;;;;;13.27;6.72;;;16.50;63.90;;;;;;5016432;28;20033;-54
2021/01/02 11:29:20;;;;;;;10.73;6.72;;;16.60;64.60;;;;;;5034348;28;20396;-54
2021/01/02 11:31:46;;;;;;;7.75;5.80;;;16.60;64.50;;;;;;5032807;28;20065;-54
2021/01/02 11:34:13;;;;;;;9.23;6.30;;;16.60;64.70;;;;;;5016392;28;20386;-54
2021/01/02 11:36:39;;;;;;;7.60;5.93;;;16.50;64.70;;;;;;5034168;28;20100;-54
2021/01/02 11:39:06;;;;;;;8.13;6.68;;;16.60;65.20;;;;;;5034169;28;20068;-51
2021/01/02 11:41:33;;;;;;;9.02;6.57;;;16.60;65.00;;;;;;5033915;28;20030;-51
2021/01/02 11:43:59;;;;;;;9.52;6.35;;;16.60;65.10;;;;;;5034347;28;20468;-51
2021/01/02 11:46:45;;;;;;;7.15;6.30;;;16.60;65.30;;;;;;5032651;28;20049;-54
2021/01/02 11:49:13;;;;;;;8.32;6.70;;;16.60;65.40;;;;;;5033720;28;20025;-53
2021/01/02 11:51:38;;;;;;;6.95;5.68;;;16.60;65.50;;;;;;5033718;28;20057;-52
2021/01/02 11:54:05;;;;;;;8.32;6.10;;;16.60;65.40;;;;;;5032605;28;20068;-54
2021/01/02 11:56:30;;;;;;;11.10;6.65;;;16.60;65.50;;;;;;5032506;28;20021;-54
2021/01/02 11:59:00;;;;;;;9.15;6.13;;;16.50;65.50;;;;;;5032465;28;20037;-51
2021/01/02 12:01:41;;;;;;;7.38;6.25;;;16.50;65.70;;;;;;5033725;28;20495;-52
2021/01/02 12:04:07;;;;;;;;;;;16.50;65.60;;;;;;5032821;28;20454;-50
2021/01/02 12:06:33;;;;;;;8.40;6.30;;;16.50;65.80;;;;;;5033700;28;19908;-50
2021/01/02 12:08:59;;;;;;;7.93;6.00;;;16.40;66.00;;;;;;5032189;28;20423;-50
2021/01/02 12:11:33;;;;;;;8.82;6.28;;;16.50;66.10;;;;;;5032464;28;20038;-50
2021/01/02 12:13:59;;;;;;;8.82;6.53;;;16.50;66.20;;;;;;5033491;28;20117;-53
2021/01/02 12:16:33;;;;;;;7.30;6.10;;;16.50;66.40;;;;;;5033506;28;20060;-51
2021/01/02 12:18:59;;;;;;;6.88;5.70;;;16.50;66.40;;;;;;5035211;28;20041;-51
2021/01/02 12:21:25;;;;;;;9.02;6.90;;;16.50;66.70;;;;;;5033337;28;20511;-51
2021/01/02 12:23:51;;;;;;;7.43;6.63;;;16.50;66.40;;;;;;5033487;28;20029;-50
2021/01/02 12:26:17;;;;;;;7.28;6.35;;;16.50;66.50;;;;;;5033417;28;20035;-54
2021/01/02 12:28:45;;;;;;;7.97;6.18;;;16.50;66.60;;;;;;5015489;28;20100;-53
2021/01/02 12:31:17;;;;;;;7.15;5.40;;;16.50;66.60;;;;;;5032923;28;20360;-54
2021/01/02 12:33:44;;;;;;;8.68;6.65;;;16.50;66.60;;;;;;5015139;28;20017;-55
2021/01/02 12:36:10;;;;;;;6.60;5.50;;;16.60;66.80;;;;;;5032950;28;20037;-54
2021/01/02 12:38:41;;;;;;;7.22;6.00;;;16.50;66.80;;;;;;5015257;28;20055;-52
2021/01/02 12:41:16;;;;;;;7.20;5.63;;;16.50;67.90;;;;;;5032909;28;20104;-54
2021/01/02 12:43:43;;;;;;;6.63;5.70;;;16.50;68.40;;;;;;5032748;28;20072;-53
2021/01/02 12:46:09;;;;;;;7.32;6.07;;;16.40;68.90;;;;;;5032731;28;20060;-50
2021/01/02 12:48:35;;;;;;;7.70;6.63;;;16.40;69.00;;;;;;5014947;28;20021;-54
2021/01/02 12:51:02;;;;;;;6.50;5.63;;;16.40;69.20;;;;;;5015081;28;20044;-52
2021/01/02 12:53:28;;;;;;;7.97;6.18;;;16.40;69.70;;;;;;5032455;28;20026;-54
2021/01/02 12:55:54;;;;;;;7.95;6.13;;;16.40;69.80;;;;;;5032906;28;20048;-56
2021/01/02 12:58:20;;;;;;;6.60;5.60;;;16.30;69.90;;;;;;5032720;28;20037;-55
2021/01/02 13:00:45;;;;;;;6.28;5.50;;;16.30;70.40;;;;;;5014758;28;20547;-54
2021/01/02 13:03:11;;;;;;;6.65;5.95;;;16.30;70.40;;;;;;5014812;28;20373;-55
2021/01/02 13:05:37;;;;;;;8.25;6.13;;;16.30;70.70;;;;;;5014643;28;20412;-55
2021/01/02 13:08:03;;;;;;;7.55;5.97;;;16.30;70.80;;;;;;5032470;28;20017;-54